Time;durP1;ratioP1;P1;durP2;ratioP2;P2;SDS_P1;SDS_P2;PMS_P1;PMS_P2;Temp;Humidity;BMP_temperature;BMP_pressure;BME280_temperature;BME280_humidity;BME280_pressure;Samples;Min_cycle;Max_cycle;Signal;HPM_P1;HPM_P2
2021/12/15 00:02:20;;;;;;;146.88;62.42;;;;;;;8.09;100.00;102352.91;5026713;28;20033;-83
2021/12/15 00:04:50;;;;;;;139.40;58.40;;;;;;;8.08;100.00;102353.88;5001757;28;20049;-84
2021/12/15 00:07:19;;;;;;;136.70;56.22;;;;;;;8.07;100.00;102364.69;5026582;28;20045;-84
2021/12/15 00:09:46;;;;;;;138.48;58.50;;;;;;;8.06;100.00;102353.13;5028765;28;20501;-83
2021/12/15 00:12:13;;;;;;;134.63;56.80;;;;;;;8.08;100.00;102369.06;5027756;28;20052;-83
2021/12/15 00:14:41;;;;;;;138.90;54.22;;;;;;;8.08;100.00;102358.34;5030100;28;20507;-84
2021/12/15 00:17:07;;;;;;;144.98;57.72;;;;;;;8.08;100.00;102361.03;5046483;28;20037;-84
2021/12/15 00:19:33;;;;;;;139.05;55.10;;;;;;;8.07;100.00;102359.34;5046741;28;20041;-84
2021/12/15 00:21:59;;;;;;;139.02;57.38;;;;;;;8.06;100.00;102360.31;5047753;28;20080;-84
2021/12/15 00:24:25;;;;;;;139.63;56.90;;;;;;;8.04;100.00;102360.41;5032457;28;20038;-84
2021/12/15 00:26:53;;;;;;;128.75;51.60;;;;;;;8.04;100.00;102364.91;5026948;28;20441;-84
2021/12/15 00:29:19;;;;;;;143.85;62.60;;;;;;;8.04;100.00;102365.75;4998469;28;20033;-84
2021/12/15 00:31:46;;;;;;;153.27;60.88;;;;;;;8.04;100.00;102376.44;5023762;28;20041;-84
2021/12/15 00:34:12;;;;;;;149.48;62.88;;;;;;;8.05;100.00;102377.31;5022258;28;20511;-84
2021/12/15 00:36:39;;;;;;;149.75;63.30;;;;;;;8.05;100.00;102370.13;5019706;28;20086;-84
2021/12/15 00:39:06;;;;;;;144.35;58.72;;;;;;;8.03;100.00;102355.19;5025213;28;20033;-84
2021/12/15 00:41:31;;;;;;;131.40;55.92;;;;;;;8.02;100.00;102356.13;5024598;28;20398;-84
2021/12/15 00:43:58;;;;;;;146.38;54.15;;;;;;;8.03;100.00;102363.22;5027356;28;20041;-84
2021/12/15 00:46:24;;;;;;;139.00;60.75;;;;;;;8.03;100.00;102368.56;5023533;28;20428;-85
2021/12/15 00:48:50;;;;;;;134.55;57.85;;;;;;;8.02;100.00;102367.66;5025627;28;20041;-83
2021/12/15 00:51:16;;;;;;;127.82;51.00;;;;;;;8.02;100.00;102359.66;5024489;28;20094;-84
2021/12/15 00:53:42;;;;;;;128.13;48.95;;;;;;;8.01;100.00;102357.09;5026769;28;20410;-84
2021/12/15 00:56:07;;;;;;;133.50;56.72;;;;;;;8.01;100.00;102359.78;5027194;28;20474;-84
2021/12/15 00:58:33;;;;;;;134.77;54.63;;;;;;;8.01;100.00;102355.28;5018040;28;20041;-84
2021/12/15 01:01:01;;;;;;;151.57;61.50;;;;;;;8.02;100.00;102353.47;5026118;28;20659;-84
2021/12/15 01:03:29;;;;;;;133.25;58.47;;;;;;;8.01;100.00;102354.44;5022444;28;20497;-84
2021/12/15 01:06:02;;;;;;;129.48;53.72;;;;;;;8.01;100.00;102362.44;5026157;28;20050;-84
2021/12/15 01:08:29;;;;;;;134.15;53.75;;;;;;;8.01;100.00;102359.78;5025405;28;20061;-85
2021/12/15 01:11:17;;;;;;;142.77;52.53;;;;;;;8.00;100.00;102361.59;5026455;28;20044;-84
2021/12/15 01:22:04;;;;;;;140.43;59.38;;;;;;;7.95;100.00;102350.38;5024292;28;20052;-84
2021/12/15 01:24:30;;;;;;;138.77;54.67;;;;;;;7.94;100.00;102354.03;5024811;28;20037;-85
2021/12/15 01:26:56;;;;;;;138.27;57.15;;;;;;;7.96;100.00;102343.22;5023510;28;20148;-83
2021/12/15 01:29:21;;;;;;;142.15;55.63;;;;;;;7.97;100.00;102355.59;5024713;28;20038;-84
2021/12/15 01:31:47;;;;;;;144.55;58.45;;;;;;;7.97;100.00;102348.47;5035504;28;20056;-84
2021/12/15 01:34:13;;;;;;;148.77;61.80;;;;;;;7.97;100.00;102347.56;5041719;28;20564;-85
2021/12/15 01:36:38;;;;;;;145.35;62.17;;;;;;;7.95;100.00;102342.34;5023754;28;20449;-85
2021/12/15 01:39:04;;;;;;;142.85;61.30;;;;;;;7.95;100.00;102338.84;5014008;28;20037;-84
2021/12/15 01:41:31;;;;;;;139.02;50.58;;;;;;;7.93;100.00;102340.75;5005044;28;20107;-84
2021/12/15 01:49:20;;;;;;;138.43;53.33;;;;;;;7.90;100.00;102342.66;5022938;28;20044;-84
2021/12/15 01:51:46;;;;;;;134.15;50.38;;;;;;;7.89;100.00;102359.69;5023211;28;20029;-85
2021/12/15 01:54:13;;;;;;;148.68;58.78;;;;;;;7.90;100.00;102358.72;5023284;28;20433;-84
2021/12/15 01:56:39;;;;;;;142.32;63.38;;;;;;;7.89;100.00;102365.03;5022348;28;20048;-84
2021/12/15 01:59:05;;;;;;;134.73;53.00;;;;;;;7.88;100.00;102357.09;5023681;28;20041;-84
2021/12/15 02:01:32;;;;;;;128.50;56.97;;;;;;;7.88;100.00;102357.97;5036533;28;20037;-85
2021/12/15 02:03:57;;;;;;;133.98;55.45;;;;;;;7.86;100.00;102351.88;5023622;28;20528;-84
2021/12/15 02:06:23;;;;;;;126.30;58.55;;;;;;;7.89;100.00;102364.19;5022937;28;20052;-84
2021/12/15 02:08:49;;;;;;;130.50;50.10;;;;;;;7.86;100.00;102359.91;5025741;28;20061;-84
2021/12/15 02:11:16;;;;;;;135.75;58.85;;;;;;;7.87;100.00;102361.59;5025150;28;20064;-85
2021/12/15 02:13:41;;;;;;;118.75;43.90;;;;;;;7.84;100.00;102348.47;5024636;28;20045;-85
2021/12/15 02:16:07;;;;;;;125.97;54.20;;;;;;;7.84;100.00;102353.81;5025649;28;20064;-85
2021/12/15 02:18:37;;;;;;;131.32;58.10;;;;;;;7.85;100.00;102351.97;5021839;28;20032;-84
2021/12/15 02:21:13;;;;;;;126.07;50.42;;;;;;;7.84;100.00;102352.94;5038820;28;20124;-84
2021/12/15 02:23:45;;;;;;;124.35;47.58;;;;;;;7.84;100.00;102344.94;5021368;28;20029;-83
2021/12/15 02:26:18;;;;;;;135.23;50.92;;;;;;;7.83;100.00;102346.75;5023453;28;20497;-84
2021/12/15 02:28:48;;;;;;;136.93;58.25;;;;;;;7.83;100.00;102341.41;5022320;28;20049;-84
2021/12/15 02:31:25;;;;;;;145.27;58.17;;;;;;;7.85;100.00;102354.66;5018309;28;20481;-84
2021/12/15 02:39:25;;;;;;;121.38;48.55;;;;;;;7.81;100.00;102353.16;5020637;28;20056;-84
2021/12/15 02:41:51;;;;;;;148.45;62.17;;;;;;;7.84;100.00;102351.13;5021970;28;20038;-85
2021/12/15 02:44:19;;;;;;;127.70;53.30;;;;;;;7.87;100.00;102358.06;5024968;28;20037;-84
2021/12/15 02:46:46;;;;;;;124.38;52.17;;;;;;;7.88;100.00;102359.78;5022308;28;20060;-84
2021/12/15 02:49:15;;;;;;;137.77;59.97;;;;;;;7.88;100.00;102360.66;5021394;28;20065;-84
2021/12/15 02:51:43;;;;;;;120.45;44.78;;;;;;;7.85;100.00;102360.00;5024185;28;20474;-84
2021/12/15 02:54:12;;;;;;;126.88;56.53;;;;;;;7.84;100.00;102367.16;5005076;28;20494;-84
2021/12/15 02:56:38;;;;;;;127.18;56.50;;;;;;;7.84;100.00;102358.31;4997254;28;20416;-84
2021/12/15 02:59:06;;;;;;;129.82;52.13;;;;;;;7.84;100.00;102351.13;5009354;28;20041;-85
2021/12/15 03:04:29;;;;;;;135.93;56.33;;;;;;;7.87;100.00;102358.94;5022506;28;20148;-84
2021/12/15 03:07:08;;;;;;;139.23;54.90;;;;;;;7.88;100.00;102352.63;5024711;28;20072;-84
2021/12/15 03:17:27;;;;;;;127.10;51.47;;;;;;;7.88;100.00;102365.13;5024216;28;20043;-84
2021/12/15 03:19:53;;;;;;;121.88;48.65;;;;;;;7.88;100.00;102357.97;4997662;28;20049;-85
2021/12/15 03:22:19;;;;;;;121.25;48.40;;;;;;;7.89;100.00;102359.69;5016444;28;20086;-84
2021/12/15 03:24:45;;;;;;;132.00;54.30;;;;;;;7.88;100.00;102352.63;5041931;28;20044;-84
2021/12/15 03:27:17;;;;;;;135.38;53.88;;;;;;;7.89;100.00;102351.66;5006317;28;20427;-84
2021/12/15 03:35:48;;;;;;;134.23;50.25;;;;;;;7.88;100.00;102352.63;5019017;28;20044;-85
2021/12/15 03:38:14;;;;;;;136.13;50.00;;;;;;;7.87;100.00;102348.25;5025748;28;20403;-84
2021/12/15 03:40:42;;;;;;;157.27;58.60;;;;;;;7.88;100.00;102359.78;4989791;28;20041;-84
2021/12/15 03:43:15;;;;;;;132.07;51.38;;;;;;;7.88;100.00;102359.78;5027580;28;20044;-85
2021/12/15 03:45:48;;;;;;;142.40;53.92;;;;;;;7.89;100.00;102350.81;5024934;28;20506;-84
2021/12/15 03:48:18;;;;;;;126.65;50.65;;;;;;;7.88;100.00;102355.31;5040762;28;20049;-84
2021/12/15 03:50:44;;;;;;;122.03;45.72;;;;;;;7.88;100.00;102359.78;5010549;28;20119;-84
2021/12/15 03:53:12;;;;;;;129.52;53.15;;;;;;;7.89;100.00;102350.81;5005302;28;20430;-84
2021/12/15 03:55:39;;;;;;;131.32;55.67;;;;;;;7.90;100.00;102357.84;5006753;28;20494;-84
2021/12/15 03:58:11;;;;;;;130.60;54.10;;;;;;;7.89;100.00;102357.00;5026530;28;20041;-84
2021/12/15 04:00:42;;;;;;;128.85;51.05;;;;;;;7.90;100.00;102356.03;5008105;28;20080;-84
2021/12/15 04:03:23;;;;;;;126.80;46.65;;;;;;;7.88;100.00;102357.97;5043068;28;20049;-84
2021/12/15 04:05:49;;;;;;;139.48;57.53;;;;;;;7.90;100.00;102373.91;5041807;28;20140;-84
2021/12/15 04:08:15;;;;;;;135.23;50.10;;;;;;;7.89;100.00;102372.19;5048765;28;20490;-84
2021/12/15 04:10:41;;;;;;;131.50;54.83;;;;;;;7.90;100.00;102363.22;5028581;28;20052;-84
2021/12/15 04:13:09;;;;;;;130.00;53.13;;;;;;;7.90;100.00;102380.09;5048655;28;20044;-84
2021/12/15 04:15:44;;;;;;;134.32;52.97;;;;;;;7.91;100.00;102383.63;5046094;28;20497;-84
2021/12/15 04:18:10;;;;;;;131.23;51.17;;;;;;;7.88;100.00;102370.47;5046762;28;20033;-85
2021/12/15 04:20:38;;;;;;;136.82;53.70;;;;;;;7.89;100.00;102386.41;5047454;28;20477;-84
2021/12/15 04:23:05;;;;;;;116.57;43.92;;;;;;;7.89;100.00;102372.19;5046587;28;20342;-84
2021/12/15 04:25:34;;;;;;;133.10;53.58;;;;;;;7.89;100.00;102373.06;5045165;28;20066;-84
2021/12/15 04:28:20;;;;;;;130.15;47.97;;;;;;;7.88;100.00;102376.69;5030972;28;20045;-84
2021/12/15 04:30:49;;;;;;;122.38;48.60;;;;;;;7.88;100.00;102378.50;5043033;28;20037;-84
2021/12/15 04:33:27;;;;;;;133.48;54.65;;;;;;;7.87;100.00;102382.97;5028171;28;20057;-84
2021/12/15 04:35:55;;;;;;;131.23;55.38;;;;;;;7.88;100.00;102382.03;5043863;28;20063;-84
2021/12/15 04:38:23;;;;;;;118.38;44.05;;;;;;;7.87;100.00;102391.00;5043967;28;20481;-83
2021/12/15 04:40:49;;;;;;;135.40;54.00;;;;;;;7.89;100.00;102389.09;5046354;28;20036;-84
2021/12/15 04:43:14;;;;;;;126.18;45.08;;;;;;;7.88;100.00;102382.03;5026726;28;20051;-84
2021/12/15 04:45:40;;;;;;;129.30;53.60;;;;;;;7.88;100.00;102387.38;5045438;28;22298;-83
2021/12/15 04:48:10;;;;;;;139.95;56.42;;;;;;;7.88;100.00;102386.50;5031816;28;20056;-84
2021/12/15 04:50:36;;;;;;;128.30;49.05;;;;;;;7.88;100.00;102386.50;5041793;28;20053;-84
2021/12/15 04:53:04;;;;;;;124.90;48.78;;;;;;;7.86;100.00;102383.97;5029779;28;20035;-84
2021/12/15 04:55:33;;;;;;;126.40;49.33;;;;;;;7.86;100.00;102391.97;5046216;28;20172;-84
2021/12/15 04:58:01;;;;;;;138.18;50.70;;;;;;;7.87;100.00;102384.81;5021843;28;20117;-83
2021/12/15 05:00:29;;;;;;;129.07;47.67;;;;;;;7.86;100.00;102393.81;5029794;28;20311;-83
2021/12/15 05:02:56;;;;;;;127.35;52.40;;;;;;;7.84;100.00;102393.91;5048421;28;20049;-84
2021/12/15 05:05:23;;;;;;;120.55;50.33;;;;;;;7.86;100.00;102404.50;5044544;28;20508;-83
2021/12/15 05:07:49;;;;;;;122.68;47.10;;;;;;;7.85;100.00;102400.97;5047922;28;20045;-84
2021/12/15 05:10:16;;;;;;;107.25;44.17;;;;;;;7.84;100.00;102399.25;5047533;28;20060;-83
2021/12/15 05:12:41;;;;;;;116.22;47.65;;;;;;;7.85;100.00;102406.31;5044957;28;20056;-83
2021/12/15 05:15:07;;;;;;;123.50;50.13;;;;;;;7.85;100.00;102400.97;5009451;28;20053;-84
2021/12/15 05:17:34;;;;;;;113.85;43.85;;;;;;;7.85;100.00;102406.31;5047795;28;20134;-84
2021/12/15 05:20:03;;;;;;;120.25;48.08;;;;;;;7.85;100.00;102397.41;5045915;28;20057;-85
2021/12/15 05:22:30;;;;;;;117.13;50.42;;;;;;;7.86;100.00;102405.34;4998897;28;20041;-84
2021/12/15 05:24:56;;;;;;;103.00;40.53;;;;;;;7.85;100.00;102411.66;5028851;28;20033;-84
2021/12/15 05:27:23;;;;;;;107.45;45.17;;;;;;;7.86;100.00;102410.69;5038869;28;20046;-85
2021/12/15 05:29:50;;;;;;;112.70;42.38;;;;;;;7.85;100.00;102409.00;5004577;28;20046;-84
2021/12/15 05:32:18;;;;;;;116.57;46.17;;;;;;;7.86;100.00;102402.66;5022454;28;20041;-83
2021/12/15 05:34:46;;;;;;;107.05;43.10;;;;;;;7.85;100.00;102411.66;5029091;28;20047;-84
2021/12/15 05:37:12;;;;;;;120.30;47.75;;;;;;;7.87;100.00;102411.53;5049484;28;20048;-84
2021/12/15 05:39:39;;;;;;;106.50;39.97;;;;;;;7.86;100.00;102410.69;5043058;28;20433;-84
2021/12/15 05:42:05;;;;;;;120.72;47.60;;;;;;;7.87;100.00;102411.53;5044661;28;20551;-83
2021/12/15 05:44:31;;;;;;;122.88;50.85;;;;;;;7.89;100.00;102414.97;5004201;28;20045;-84
2021/12/15 05:47:00;;;;;;;114.43;42.47;;;;;;;7.88;100.00;102414.13;5034494;28;20512;-84
2021/12/15 05:49:26;;;;;;;112.22;41.35;;;;;;;7.87;100.00;102417.72;5011167;28;20065;-84
2021/12/15 05:51:52;;;;;;;118.18;47.72;;;;;;;7.87;100.00;102411.53;5032563;28;20409;-84
2021/12/15 05:54:18;;;;;;;118.25;45.47;;;;;;;7.87;100.00;102412.38;5004484;28;20045;-84
2021/12/15 05:56:44;;;;;;;122.25;43.47;;;;;;;7.87;100.00;102417.72;5012842;28;21132;-84
2021/12/15 05:59:10;;;;;;;122.07;46.10;;;;;;;7.87;100.00;102420.41;5036130;28;20029;-84
2021/12/15 06:01:35;;;;;;;113.78;50.05;;;;;;;7.87;100.00;102423.06;5022863;28;20044;-84
2021/12/15 06:04:03;;;;;;;117.80;49.15;;;;;;;7.88;100.00;102419.47;5027383;28;20133;-84
2021/12/15 06:06:29;;;;;;;130.35;51.83;;;;;;;7.89;100.00;102420.31;5022588;28;20441;-84
2021/12/15 06:08:55;;;;;;;121.03;45.72;;;;;;;7.88;100.00;102411.44;5022711;28;20041;-84
2021/12/15 06:11:21;;;;;;;114.65;46.88;;;;;;;7.88;100.00;102423.94;5020496;28;20057;-84
2021/12/15 06:13:48;;;;;;;109.88;43.85;;;;;;;7.88;100.00;102408.78;5019118;28;20052;-84
2021/12/15 06:16:20;;;;;;;107.40;41.67;;;;;;;7.89;100.00;102426.50;5020717;28;20060;-84
2021/12/15 06:18:48;;;;;;;107.32;41.63;;;;;;;7.89;100.00;102429.19;5017257;28;20087;-84
2021/12/15 06:21:15;;;;;;;112.95;41.88;;;;;;;7.90;100.00;102430.03;5019847;28;20516;-84
2021/12/15 06:23:41;;;;;;;109.28;44.97;;;;;;;7.90;100.00;102438.06;5020342;28;20064;-84
2021/12/15 06:26:07;;;;;;;95.05;35.75;;;;;;;7.90;100.00;102438.06;5007082;28;20542;-83
2021/12/15 06:28:34;;;;;;;108.22;41.00;;;;;;;7.88;100.00;102435.50;5019921;28;20091;-84
2021/12/15 06:31:01;;;;;;;113.32;44.25;;;;;;;7.91;100.00;102439.75;5020763;28;20046;-84
2021/12/15 06:33:28;;;;;;;114.20;43.25;;;;;;;7.89;100.00;102439.88;5021589;28;20379;-83
2021/12/15 06:35:58;;;;;;;116.78;46.08;;;;;;;7.91;100.00;102439.75;5023722;28;20045;-84
2021/12/15 06:38:31;;;;;;;117.95;47.92;;;;;;;7.89;100.00;102445.22;5023937;28;20100;-84
2021/12/15 06:40:58;;;;;;;114.15;45.97;;;;;;;7.89;100.00;102445.22;5038159;28;20547;-84
2021/12/15 06:43:24;;;;;;;114.05;37.60;;;;;;;7.89;100.00;102445.22;5022761;28;20041;-84
2021/12/15 06:46:02;;;;;;;116.38;45.17;;;;;;;7.90;100.00;102436.22;5022556;28;20128;-84
2021/12/15 06:59:24;;;;;;;120.55;45.70;;;;;;;7.89;100.00;102447.03;5028168;28;20055;-84
2021/12/15 07:01:51;;;;;;;136.18;49.47;;;;;;;7.91;100.00;102451.31;5040674;28;20049;-84
2021/12/15 07:04:18;;;;;;;128.20;48.30;;;;;;;7.93;100.00;102455.69;5044120;28;20033;-84
2021/12/15 07:06:44;;;;;;;128.25;43.13;;;;;;;7.93;100.00;102463.72;5026328;28;20037;-84
2021/12/15 07:09:10;;;;;;;121.25;43.67;;;;;;;7.94;100.00;102452.94;5026778;28;20498;-84
2021/12/15 07:11:35;;;;;;;121.07;43.83;;;;;;;7.94;100.00;102460.94;5042665;28;20116;-84
2021/12/15 07:14:01;;;;;;;127.82;45.65;;;;;;;7.96;100.00;102474.19;5042805;28;20049;-84
2021/12/15 07:16:28;;;;;;;122.40;43.15;;;;;;;7.96;100.00;102464.34;5043410;28;20156;-84
2021/12/15 07:19:06;;;;;;;136.88;48.90;;;;;;;7.97;100.00;102481.25;5025858;28;20071;-84
2021/12/15 07:21:36;;;;;;;131.40;43.60;;;;;;;7.97;100.00;102482.13;5023187;28;20069;-84
2021/12/15 07:24:03;;;;;;;124.05;42.95;;;;;;;7.97;100.00;102467.88;5027581;28;20044;-84
2021/12/15 07:26:28;;;;;;;130.35;45.90;;;;;;;7.97;100.00;102479.44;5040954;28;20107;-84
2021/12/15 07:28:54;;;;;;;140.45;50.92;;;;;;;8.00;100.00;102483.69;5011938;28;20474;-84
2021/12/15 07:31:20;;;;;;;145.10;46.05;;;;;;;7.99;100.00;102471.31;5044368;28;20041;-84
2021/12/15 07:33:46;;;;;;;143.18;50.90;;;;;;;7.99;100.00;102482.84;5043445;28;20044;-84
2021/12/15 07:36:13;;;;;;;141.40;49.85;;;;;;;8.01;100.00;102482.75;5025316;28;20039;-84
2021/12/15 07:38:41;;;;;;;136.43;51.22;;;;;;;8.00;100.00;102481.03;5042940;28;20037;-84
2021/12/15 07:41:23;;;;;;;142.07;53.17;;;;;;;8.01;100.00;102488.94;5026847;28;20033;-84
2021/12/15 07:43:49;;;;;;;138.73;49.58;;;;;;;8.01;100.00;102488.94;5045773;28;20044;-84
2021/12/15 07:46:15;;;;;;;131.57;49.95;;;;;;;8.01;100.00;102488.09;5048192;28;20256;-84
2021/12/15 07:48:40;;;;;;;129.18;44.00;;;;;;;8.00;100.00;102483.69;5046874;28;20433;-84
2021/12/15 07:51:08;;;;;;;136.77;46.80;;;;;;;8.01;100.00;102472.91;5032515;28;20408;-84
2021/12/15 07:53:34;;;;;;;133.52;46.25;;;;;;;8.01;100.00;102477.41;5004914;28;20045;-84
2021/12/15 07:55:59;;;;;;;140.13;50.97;;;;;;;8.04;100.00;102482.53;5011055;28;20072;-84
2021/12/15 07:58:26;;;;;;;145.00;54.78;;;;;;;8.03;100.00;102480.84;5044768;28;20045;-84
2021/12/15 08:00:53;;;;;;;142.50;52.88;;;;;;;8.03;100.00;102481.69;5033763;28;20051;-84
2021/12/15 08:03:19;;;;;;;139.02;49.30;;;;;;;8.04;100.00;102493.25;5029943;28;20124;-84
2021/12/15 08:05:47;;;;;;;123.65;40.35;;;;;;;8.05;100.00;102489.59;5013630;28;20112;-84
2021/12/15 08:08:13;;;;;;;132.18;44.63;;;;;;;8.05;100.00;102489.59;5030701;28;20041;-84
2021/12/15 08:10:41;;;;;;;129.77;47.30;;;;;;;8.05;100.00;102498.47;5028467;28;20679;-84
2021/12/15 08:13:07;;;;;;;140.60;55.10;;;;;;;8.06;100.00;102499.34;5047234;28;20460;-84
2021/12/15 08:15:32;;;;;;;134.63;49.67;;;;;;;8.05;100.00;102501.13;5042829;28;20287;-84
2021/12/15 08:17:58;;;;;;;140.48;52.40;;;;;;;8.06;100.00;102494.00;5028861;28;20060;-84
2021/12/15 08:20:27;;;;;;;137.43;46.78;;;;;;;8.07;100.00;102501.03;5040758;28;20608;-85
2021/12/15 08:22:52;;;;;;;128.10;44.63;;;;;;;8.06;100.00;102499.34;5047051;28;20434;-84
2021/12/15 08:25:19;;;;;;;131.50;44.78;;;;;;;8.06;100.00;102502.03;5028203;28;20478;-84
2021/12/15 08:27:46;;;;;;;140.40;47.50;;;;;;;8.08;100.00;102505.41;5028690;28;20041;-84
2021/12/15 08:30:19;;;;;;;130.25;45.60;;;;;;;8.08;100.00;102494.72;5028815;28;20492;-84
2021/12/15 08:32:46;;;;;;;139.77;52.00;;;;;;;8.07;100.00;102499.22;5028573;28;20070;-84
2021/12/15 08:35:12;;;;;;;118.88;39.75;;;;;;;8.09;100.00;102501.81;5011917;28;20156;-84
2021/12/15 08:37:38;;;;;;;135.75;48.45;;;;;;;8.10;100.00;102507.03;5028898;28;20036;-84
2021/12/15 08:40:04;;;;;;;133.85;50.13;;;;;;;8.09;100.00;102501.81;5046277;28;20041;-84
2021/12/15 08:42:30;;;;;;;130.25;45.58;;;;;;;8.09;100.00;102497.31;5041834;28;20041;-84
2021/12/15 08:44:56;;;;;;;135.75;50.92;;;;;;;8.11;100.00;102497.19;5028026;28;20056;-84
2021/12/15 08:47:21;;;;;;;132.85;43.97;;;;;;;8.12;100.00;102504.25;5041874;28;20033;-84
2021/12/15 08:49:47;;;;;;;115.63;41.10;;;;;;;8.13;100.00;102497.94;5030530;28;20533;-84
2021/12/15 08:52:14;;;;;;;117.47;44.55;;;;;;;8.13;100.00;102490.78;5010762;28;20420;-84
2021/12/15 08:54:39;;;;;;;130.45;47.42;;;;;;;8.14;100.00;102494.28;5028812;28;20037;-84
2021/12/15 08:57:05;;;;;;;121.28;41.88;;;;;;;8.16;100.00;102507.56;5023221;28;20037;-84
2021/12/15 08:59:31;;;;;;;128.73;48.97;;;;;;;8.16;100.00;102503.06;5045979;28;20382;-84
2021/12/15 09:01:56;;;;;;;124.35;42.25;;;;;;;8.16;100.00;102510.25;5027518;28;20037;-84
2021/12/15 09:04:22;;;;;;;134.13;49.10;;;;;;;8.17;100.00;102504.81;5030776;28;20063;-84
2021/12/15 09:06:49;;;;;;;124.43;43.95;;;;;;;8.17;100.00;102495.91;5031587;28;20130;-84
2021/12/15 09:09:17;;;;;;;135.80;45.00;;;;;;;8.19;100.00;102518.06;5027429;28;20040;-84
2021/12/15 09:11:43;;;;;;;125.85;44.55;;;;;;;8.19;100.00;102512.69;5024595;28;20037;-84
2021/12/15 09:14:12;;;;;;;130.73;42.58;;;;;;;8.19;100.00;102521.56;5023968;28;20038;-85
2021/12/15 09:16:40;;;;;;;140.93;45.80;;;;;;;8.22;100.00;102518.69;5013779;28;20321;-84
2021/12/15 09:19:05;;;;;;;119.50;45.30;;;;;;;8.22;100.00;102510.66;5025081;28;20037;-84
2021/12/15 09:21:33;;;;;;;130.00;49.05;;;;;;;8.22;100.00;102518.69;5025682;28;20557;-84
2021/12/15 09:24:00;;;;;;;120.47;44.63;;;;;;;8.23;100.00;102517.75;5025577;28;20068;-84
2021/12/15 09:26:27;;;;;;;132.70;43.33;;;;;;;8.24;100.00;102523.94;5027096;28;20045;-84
2021/12/15 09:28:52;;;;;;;132.45;48.85;;;;;;;8.23;100.00;102512.41;5024993;28;20482;-84
2021/12/15 09:31:18;;;;;;;122.05;40.17;;;;;;;8.23;100.00;102509.72;5017414;28;20044;-84
2021/12/15 09:33:46;;;;;;;125.90;38.70;;;;;;;8.26;100.00;102508.66;5037435;28;20824;-84
2021/12/15 09:36:15;;;;;;;132.03;47.60;;;;;;;8.27;100.00;102527.25;5027097;28;20045;-84
2021/12/15 09:38:42;;;;;;;129.25;41.72;;;;;;;8.26;100.00;102509.50;5025507;28;20045;-84
2021/12/15 09:41:11;;;;;;;135.20;41.63;;;;;;;8.26;100.00;102522.03;5011779;28;20168;-84
2021/12/15 09:43:37;;;;;;;135.48;47.53;;;;;;;8.28;100.00;102536.13;5023625;28;20045;-84
2021/12/15 09:46:24;;;;;;;136.27;47.58;;;;;;;8.27;100.00;102529.94;5026543;28;20042;-84
2021/12/15 10:18:25;;;;;;;124.25;41.78;;;;;;;8.32;100.00;102538.50;5031763;28;20044;-84
2021/12/15 10:20:50;;;;;;;130.02;40.10;;;;;;;8.33;100.00;102540.19;5013578;28;20477;-84
2021/12/15 10:23:23;;;;;;;135.10;42.10;;;;;;;8.34;100.00;102535.69;5044339;28;20113;-84
2021/12/15 10:25:53;;;;;;;145.45;44.13;;;;;;;8.35;100.00;102543.63;5029705;28;20489;-84
2021/12/15 10:28:26;;;;;;;127.50;42.60;;;;;;;8.36;100.00;102526.59;5038712;28;20044;-84
2021/12/15 10:31:02;;;;;;;114.70;36.20;;;;;;;8.36;100.00;102531.94;5013318;28;20060;-84
2021/12/15 10:33:30;;;;;;;140.25;45.28;;;;;;;8.40;100.00;102537.13;5013524;28;20120;-84
2021/12/15 10:36:02;;;;;;;128.27;42.63;;;;;;;8.39;100.00;102546.13;5048929;28;20045;-84
2021/12/15 10:38:30;;;;;;;135.95;43.05;;;;;;;8.39;100.00;102540.78;5030278;28;20043;-84
2021/12/15 10:41:25;;;;;;;133.95;44.22;;;;;;;8.40;100.00;102537.13;5033753;28;20046;-84
2021/12/15 10:44:06;;;;;;;137.60;46.50;;;;;;;8.40;100.00;102532.66;5018446;28;20051;-84
2021/12/15 10:46:50;;;;;;;135.40;46.40;;;;;;;8.40;100.00;102539.78;5040626;28;20033;-84
2021/12/15 10:49:38;;;;;;;135.68;41.92;;;;;;;8.40;100.00;102538.00;5041361;28;20448;-84
2021/12/15 10:52:10;;;;;;;137.70;41.50;;;;;;;8.41;100.00;102545.06;5050901;28;20053;-84
2021/12/15 10:54:45;;;;;;;143.25;44.05;;;;;;;8.42;100.00;102552.09;5048097;28;20276;-84
2021/12/15 10:57:12;;;;;;;142.40;44.15;;;;;;;8.42;100.00;102541.41;5030390;28;20045;-84
2021/12/15 10:59:48;;;;;;;135.38;39.28;;;;;;;8.44;100.00;102546.66;5028325;28;20140;-84
2021/12/15 11:02:34;;;;;;;129.63;39.33;;;;;;;8.45;100.00;102541.19;5013583;28;20102;-84
2021/12/15 11:05:06;;;;;;;145.23;48.17;;;;;;;8.45;100.00;102543.88;5042955;28;20106;-84
2021/12/15 11:07:32;;;;;;;144.35;49.30;;;;;;;8.45;100.00;102540.34;5007798;28;20049;-84
2021/12/15 11:10:00;;;;;;;148.55;45.97;;;;;;;8.45;100.00;102546.53;5026240;28;20049;-84
2021/12/15 11:12:30;;;;;;;149.77;49.90;;;;;;;8.47;100.00;102543.78;5021060;28;20045;-84
2021/12/15 11:15:22;;;;;;;147.93;45.10;;;;;;;8.49;100.00;102536.50;5029609;28;20098;-84
2021/12/15 11:17:58;;;;;;;145.48;44.85;;;;;;;8.49;100.00;102542.69;5028314;28;20045;-84
2021/12/15 11:20:32;;;;;;;138.48;40.80;;;;;;;8.49;100.00;102548.06;5035400;28;20049;-84
2021/12/15 11:23:03;;;;;;;140.02;39.42;;;;;;;8.49;100.00;102539.19;5033709;28;20037;-84
2021/12/15 11:25:39;;;;;;;140.57;42.40;;;;;;;8.49;100.00;102547.19;5052156;28;20044;-84
2021/12/15 11:28:12;;;;;;;150.82;44.13;;;;;;;8.50;100.00;102555.09;5040353;28;20531;-84
2021/12/15 11:30:45;;;;;;;143.07;40.75;;;;;;;8.52;100.00;102555.88;5036230;28;20056;-84
2021/12/15 11:33:21;;;;;;;140.13;41.60;;;;;;;8.53;100.00;102535.31;5048713;28;20047;-84
2021/12/15 11:35:54;;;;;;;135.90;44.72;;;;;;;8.52;100.00;102552.34;5033924;28;20437;-84
2021/12/15 11:38:27;;;;;;;131.63;40.85;;;;;;;8.54;100.00;102545.03;5034098;28;20514;-84
2021/12/15 11:40:55;;;;;;;149.60;46.22;;;;;;;8.54;100.00;102550.38;5033927;28;20047;-84
2021/12/15 11:43:30;;;;;;;146.05;47.20;;;;;;;8.56;100.00;102537.75;5029919;28;20292;-84
2021/12/15 11:45:56;;;;;;;150.65;50.15;;;;;;;8.57;100.00;102540.34;5017619;28;20492;-84
2021/12/15 11:48:36;;;;;;;141.93;42.60;;;;;;;8.59;100.00;102545.56;5028849;28;20049;-84
2021/12/15 11:51:03;;;;;;;;;;;;;;;8.59;100.00;102537.53;5050040;28;20110;-84
2021/12/15 11:53:37;;;;;;;132.43;39.63;;;;;;;8.57;100.00;102531.44;5026799;28;19912;-84
2021/12/15 11:56:18;;;;;;;151.32;48.95;;;;;;;8.62;100.00;102529.28;5013383;28;20041;-84
2021/12/15 11:58:46;;;;;;;140.07;48.92;;;;;;;8.64;100.00;102529.19;5000863;28;20050;-84
2021/12/15 12:01:38;;;;;;;120.43;39.50;;;;;;;8.64;100.00;102514.00;5022145;28;20579;-85
2021/12/15 12:04:19;;;;;;;125.93;46.00;;;;;;;8.67;100.00;102531.66;4985808;28;20038;-84
2021/12/15 12:06:50;;;;;;;122.03;43.05;;;;;;;8.67;100.00;102527.16;5021365;28;20045;-84
2021/12/15 12:09:18;;;;;;;129.85;48.28;;;;;;;8.69;100.00;102524.34;5008552;28;20037;-84
2021/12/15 12:11:48;;;;;;;125.10;43.90;;;;;;;8.68;100.00;102526.19;5005889;28;20044;-84
2021/12/15 12:14:26;;;;;;;127.82;43.08;;;;;;;8.71;100.00;102517.06;5023571;28;20444;-84
2021/12/15 12:16:52;;;;;;;118.60;47.00;;;;;;;8.73;100.00;102524.03;5024104;28;20037;-84
2021/12/15 12:19:18;;;;;;;126.78;49.70;;;;;;;8.75;100.00;102524.78;5026718;28;20041;-84
2021/12/15 12:21:44;;;;;;;126.50;50.17;;;;;;;8.77;100.00;102520.16;5026938;28;20046;-84
2021/12/15 12:24:16;;;;;;;125.15;45.78;;;;;;;8.79;100.00;102518.22;5025089;28;20456;-84
2021/12/15 12:26:44;;;;;;;116.18;44.17;;;;;;;8.81;100.00;102521.66;5038528;28;20131;-84